sensor_id;sensor_type;location;lat;lon;timestamp;temperature;humidity
25024;DHT22;13033;50.936;5.334;2022-12-18T00:01:47;-3.10;99.90
25024;DHT22;13033;50.936;5.334;2022-12-18T00:04:24;-3.10;99.90
25024;DHT22;13033;50.936;5.334;2022-12-18T00:06:50;-3.00;99.90
25024;DHT22;13033;50.936;5.334;2022-12-18T00:09:16;-2.90;99.90
25024;DHT22;13033;50.936;5.334;2022-12-18T00:11:42;-2.80;99.90
25024;DHT22;13033;50.936;5.334;2022-12-18T00:14:09;-2.60;99.90
25024;DHT22;13033;50.936;5.334;2022-12-18T00:16:36;-2.60;99.90
25024;DHT22;13033;50.936;5.334;2022-12-18T00:19:03;-2.60;99.90
25024;DHT22;13033;50.936;5.334;2022-12-18T00:21:30;-2.60;99.90
25024;DHT22;13033;50.936;5.334;2022-12-18T00:23:57;-2.60;99.90
25024;DHT22;13033;50.936;5.334;2022-12-18T00:26:25;-2.70;99.90
25024;DHT22;13033;50.936;5.334;2022-12-18T00:28:52;-2.80;99.90
25024;DHT22;13033;50.936;5.334;2022-12-18T00:31:23;-2.90;99.90
25024;DHT22;13033;50.936;5.334;2022-12-18T00:33:49;-3.00;99.90
25024;DHT22;13033;50.936;5.334;2022-12-18T00:36:20;-3.00;99.90
25024;DHT22;13033;50.936;5.334;2022-12-18T00:38:47;-3.10;99.90
25024;DHT22;13033;50.936;5.334;2022-12-18T00:41:14;-3.20;99.90
25024;DHT22;13033;50.936;5.334;2022-12-18T00:44:00;-3.30;99.90
25024;DHT22;13033;50.936;5.334;2022-12-18T00:46:26;-3.30;99.90
25024;DHT22;13033;50.936;5.334;2022-12-18T00:48:51;-3.20;99.90
25024;DHT22;13033;50.936;5.334;2022-12-18T00:51:17;-3.10;99.90
25024;DHT22;13033;50.936;5.334;2022-12-18T00:53:42;-3.10;99.90
25024;DHT22;13033;50.936;5.334;2022-12-18T00:56:08;-3.00;99.90
25024;DHT22;13033;50.936;5.334;2022-12-18T00:58:34;-3.10;99.90
25024;DHT22;13033;50.936;5.334;2022-12-18T01:00:59;-3.20;99.90
25024;DHT22;13033;50.936;5.334;2022-12-18T01:03:25;-3.10;99.90
25024;DHT22;13033;50.936;5.334;2022-12-18T01:05:51;-3.10;99.90
25024;DHT22;13033;50.936;5.334;2022-12-18T01:08:16;-3.10;99.90
25024;DHT22;13033;50.936;5.334;2022-12-18T01:10:42;-3.20;99.90
25024;DHT22;13033;50.936;5.334;2022-12-18T01:13:08;-3.30;99.90
25024;DHT22;13033;50.936;5.334;2022-12-18T01:15:33;-3.20;99.90
25024;DHT22;13033;50.936;5.334;2022-12-18T01:17:59;-3.20;99.90
25024;DHT22;13033;50.936;5.334;2022-12-18T01:20:25;-3.30;99.90
25024;DHT22;13033;50.936;5.334;2022-12-18T01:22:51;-3.40;99.90
25024;DHT22;13033;50.936;5.334;2022-12-18T01:25:17;-3.50;99.90
25024;DHT22;13033;50.936;5.334;2022-12-18T01:27:42;-3.50;99.90
25024;DHT22;13033;50.936;5.334;2022-12-18T01:30:08;-3.40;99.90
25024;DHT22;13033;50.936;5.334;2022-12-18T01:32:34;-3.30;99.90
25024;DHT22;13033;50.936;5.334;2022-12-18T01:35:00;-3.40;99.90
25024;DHT22;13033;50.936;5.334;2022-12-18T01:37:25;-3.50;99.90
25024;DHT22;13033;50.936;5.334;2022-12-18T01:39:52;-3.40;99.90
25024;DHT22;13033;50.936;5.334;2022-12-18T01:42:20;-3.30;99.90
25024;DHT22;13033;50.936;5.334;2022-12-18T01:52:42;-3.50;99.90
25024;DHT22;13033;50.936;5.334;2022-12-18T01:55:12;-3.50;99.90
25024;DHT22;13033;50.936;5.334;2022-12-18T01:57:40;-3.60;99.90
25024;DHT22;13033;50.936;5.334;2022-12-18T02:00:27;-3.70;99.90
25024;DHT22;13033;50.936;5.334;2022-12-18T02:02:53;-3.60;99.90
25024;DHT22;13033;50.936;5.334;2022-12-18T02:05:29;-3.50;99.90
25024;DHT22;13033;50.936;5.334;2022-12-18T02:08:18;-3.40;99.90
25024;DHT22;13033;50.936;5.334;2022-12-18T02:10:54;-3.50;99.90
25024;DHT22;13033;50.936;5.334;2022-12-18T02:18:38;-3.60;99.90
25024;DHT22;13033;50.936;5.334;2022-12-18T02:21:16;-3.70;99.90
25024;DHT22;13033;50.936;5.334;2022-12-18T02:29:02;-3.40;99.90
25024;DHT22;13033;50.936;5.334;2022-12-18T02:31:35;-3.50;99.90
25024;DHT22;13033;50.936;5.334;2022-12-18T02:34:04;-3.60;99.90
25024;DHT22;13033;50.936;5.334;2022-12-18T02:36:32;-3.60;99.90
25024;DHT22;13033;50.936;5.334;2022-12-18T02:38:59;-3.70;99.90
25024;DHT22;13033;50.936;5.334;2022-12-18T02:41:26;-3.80;99.90
25024;DHT22;13033;50.936;5.334;2022-12-18T02:43:57;-3.70;99.90
25024;DHT22;13033;50.936;5.334;2022-12-18T02:46:36;-3.50;99.90
25024;DHT22;13033;50.936;5.334;2022-12-18T02:49:26;-3.50;99.90
25024;DHT22;13033;50.936;5.334;2022-12-18T02:54:53;-3.70;99.90
25024;DHT22;13033;50.936;5.334;2022-12-18T03:00:20;-4.20;99.90
25024;DHT22;13033;50.936;5.334;2022-12-18T03:02:59;-4.10;99.90
25024;DHT22;13033;50.936;5.334;2022-12-18T03:05:33;-3.80;99.90
25024;DHT22;13033;50.936;5.334;2022-12-18T03:08:12;-3.70;99.90
25024;DHT22;13033;50.936;5.334;2022-12-18T03:10:45;-3.70;99.90
25024;DHT22;13033;50.936;5.334;2022-12-18T03:13:26;-3.80;99.90
25024;DHT22;13033;50.936;5.334;2022-12-18T03:15:55;-3.90;99.90
25024;DHT22;13033;50.936;5.334;2022-12-18T03:18:30;-4.10;99.90
25024;DHT22;13033;50.936;5.334;2022-12-18T03:20:59;-4.20;99.90
25024;DHT22;13033;50.936;5.334;2022-12-18T03:23:28;-4.10;99.90
25024;DHT22;13033;50.936;5.334;2022-12-18T03:25:57;-4.00;99.90
25024;DHT22;13033;50.936;5.334;2022-12-18T03:28:24;-4.10;99.90
25024;DHT22;13033;50.936;5.334;2022-12-18T03:30:56;-4.10;99.90
25024;DHT22;13033;50.936;5.334;2022-12-18T03:33:29;-4.00;99.90
25024;DHT22;13033;50.936;5.334;2022-12-18T03:35:57;-3.80;99.90
25024;DHT22;13033;50.936;5.334;2022-12-18T03:38:23;-3.80;99.90
25024;DHT22;13033;50.936;5.334;2022-12-18T03:47:10;-4.00;99.90
25024;DHT22;13033;50.936;5.334;2022-12-18T03:49:47;-4.10;99.90
25024;DHT22;13033;50.936;5.334;2022-12-18T03:54:50;-4.40;99.90
25024;DHT22;13033;50.936;5.334;2022-12-18T03:57:22;-4.40;99.90
25024;DHT22;13033;50.936;5.334;2022-12-18T03:59:54;-4.40;99.90
25024;DHT22;13033;50.936;5.334;2022-12-18T04:02:23;-4.30;99.90
25024;DHT22;13033;50.936;5.334;2022-12-18T04:04:52;-4.40;99.90
25024;DHT22;13033;50.936;5.334;2022-12-18T04:07:20;-4.40;99.90
25024;DHT22;13033;50.936;5.334;2022-12-18T04:09:47;-4.50;99.90
25024;DHT22;13033;50.936;5.334;2022-12-18T04:12:13;-4.50;99.90
25024;DHT22;13033;50.936;5.334;2022-12-18T04:14:39;-4.50;99.90
25024;DHT22;13033;50.936;5.334;2022-12-18T04:17:05;-4.50;99.90
25024;DHT22;13033;50.936;5.334;2022-12-18T04:19:30;-4.50;99.90
25024;DHT22;13033;50.936;5.334;2022-12-18T04:21:56;-4.30;99.90
25024;DHT22;13033;50.936;5.334;2022-12-18T04:24:22;-4.30;99.90
25024;DHT22;13033;50.936;5.334;2022-12-18T04:26:47;-4.10;99.90
25024;DHT22;13033;50.936;5.334;2022-12-18T04:29:13;-4.00;99.90
25024;DHT22;13033;50.936;5.334;2022-12-18T04:31:39;-3.90;99.90
25024;DHT22;13033;50.936;5.334;2022-12-18T04:34:04;-3.70;99.90
25024;DHT22;13033;50.936;5.334;2022-12-18T04:36:30;-3.70;99.90
25024;DHT22;13033;50.936;5.334;2022-12-18T04:38:55;-3.80;99.90
25024;DHT22;13033;50.936;5.334;2022-12-18T04:41:21;-4.20;99.90
25024;DHT22;13033;50.936;5.334;2022-12-18T04:43:47;-4.30;99.90
25024;DHT22;13033;50.936;5.334;2022-12-18T04:46:13;-4.30;99.90
25024;DHT22;13033;50.936;5.334;2022-12-18T04:48:39;-4.30;99.90
25024;DHT22;13033;50.936;5.334;2022-12-18T04:51:05;-4.10;99.90
25024;DHT22;13033;50.936;5.334;2022-12-18T04:53:31;-4.10;99.90
25024;DHT22;13033;50.936;5.334;2022-12-18T04:56:12;-4.10;99.90
25024;DHT22;13033;50.936;5.334;2022-12-18T04:58:39;-4.00;99.90
25024;DHT22;13033;50.936;5.334;2022-12-18T05:01:06;-4.10;99.90
25024;DHT22;13033;50.936;5.334;2022-12-18T05:03:33;-4.10;99.90
25024;DHT22;13033;50.936;5.334;2022-12-18T05:05:59;-4.10;99.90
25024;DHT22;13033;50.936;5.334;2022-12-18T05:08:25;-4.10;99.90
25024;DHT22;13033;50.936;5.334;2022-12-18T05:11:05;-4.20;99.90
25024;DHT22;13033;50.936;5.334;2022-12-18T05:13:31;-4.50;99.90
25024;DHT22;13033;50.936;5.334;2022-12-18T05:15:57;-4.50;99.90
25024;DHT22;13033;50.936;5.334;2022-12-18T05:18:23;-4.40;99.90
25024;DHT22;13033;50.936;5.334;2022-12-18T05:20:53;-4.40;99.90
25024;DHT22;13033;50.936;5.334;2022-12-18T05:23:20;-4.40;99.90
25024;DHT22;13033;50.936;5.334;2022-12-18T05:25:58;-4.40;99.90
25024;DHT22;13033;50.936;5.334;2022-12-18T05:28:25;-4.40;99.90
25024;DHT22;13033;50.936;5.334;2022-12-18T05:30:53;-4.40;99.90
25024;DHT22;13033;50.936;5.334;2022-12-18T05:33:20;-4.40;99.90
25024;DHT22;13033;50.936;5.334;2022-12-18T05:35:51;-4.30;99.90
25024;DHT22;13033;50.936;5.334;2022-12-18T05:38:18;-4.20;99.90
25024;DHT22;13033;50.936;5.334;2022-12-18T05:40:44;-4.30;99.90
25024;DHT22;13033;50.936;5.334;2022-12-18T05:43:10;-4.20;99.90
25024;DHT22;13033;50.936;5.334;2022-12-18T05:45:39;-4.30;99.90
25024;DHT22;13033;50.936;5.334;2022-12-18T05:48:06;-4.20;99.90
25024;DHT22;13033;50.936;5.334;2022-12-18T05:50:37;-4.10;99.90
25024;DHT22;13033;50.936;5.334;2022-12-18T05:53:05;-4.20;99.90
25024;DHT22;13033;50.936;5.334;2022-12-18T05:55:34;-4.10;99.90
25024;DHT22;13033;50.936;5.334;2022-12-18T05:58:01;-4.30;99.90
25024;DHT22;13033;50.936;5.334;2022-12-18T06:00:27;-4.40;99.90
25024;DHT22;13033;50.936;5.334;2022-12-18T06:02:52;-4.50;99.90
25024;DHT22;13033;50.936;5.334;2022-12-18T06:05:18;-4.40;99.90
25024;DHT22;13033;50.936;5.334;2022-12-18T06:07:43;-4.50;99.90
25024;DHT22;13033;50.936;5.334;2022-12-18T06:10:09;-4.60;99.90
25024;DHT22;13033;50.936;5.334;2022-12-18T06:12:35;-4.60;99.90
25024;DHT22;13033;50.936;5.334;2022-12-18T06:15:01;-4.70;99.90
25024;DHT22;13033;50.936;5.334;2022-12-18T06:17:31;-4.60;99.90
25024;DHT22;13033;50.936;5.334;2022-12-18T06:19:57;-4.40;99.90
25024;DHT22;13033;50.936;5.334;2022-12-18T06:22:22;-4.40;99.90
25024;DHT22;13033;50.936;5.334;2022-12-18T06:24:48;-4.70;99.90
25024;DHT22;13033;50.936;5.334;2022-12-18T06:27:14;-4.90;99.90
25024;DHT22;13033;50.936;5.334;2022-12-18T06:29:39;-4.90;99.90
25024;DHT22;13033;50.936;5.334;2022-12-18T06:32:05;-4.90;99.90
25024;DHT22;13033;50.936;5.334;2022-12-18T06:34:31;-4.90;99.90
25024;DHT22;13033;50.936;5.334;2022-12-18T06:36:58;-4.80;99.90
25024;DHT22;13033;50.936;5.334;2022-12-18T06:39:23;-4.80;99.90
25024;DHT22;13033;50.936;5.334;2022-12-18T06:41:49;-4.70;99.90
25024;DHT22;13033;50.936;5.334;2022-12-18T06:44:14;-4.70;99.90
25024;DHT22;13033;50.936;5.334;2022-12-18T06:46:40;-4.80;99.90
25024;DHT22;13033;50.936;5.334;2022-12-18T06:49:06;-4.90;99.90
25024;DHT22;13033;50.936;5.334;2022-12-18T06:51:32;-5.00;99.90
25024;DHT22;13033;50.936;5.334;2022-12-18T06:53:57;-5.00;99.90
25024;DHT22;13033;50.936;5.334;2022-12-18T06:56:23;-4.90;99.90
25024;DHT22;13033;50.936;5.334;2022-12-18T06:58:50;-4.90;99.90
25024;DHT22;13033;50.936;5.334;2022-12-18T07:01:15;-5.00;99.90
25024;DHT22;13033;50.936;5.334;2022-12-18T07:03:42;-5.00;99.90
25024;DHT22;13033;50.936;5.334;2022-12-18T07:06:17;-4.80;99.90
25024;DHT22;13033;50.936;5.334;2022-12-18T07:08:44;-4.80;99.90
25024;DHT22;13033;50.936;5.334;2022-12-18T07:11:10;-4.80;99.90
25024;DHT22;13033;50.936;5.334;2022-12-18T07:13:35;-4.70;99.90
25024;DHT22;13033;50.936;5.334;2022-12-18T07:16:09;-4.60;99.90
25024;DHT22;13033;50.936;5.334;2022-12-18T07:18:35;-4.70;99.90
25024;DHT22;13033;50.936;5.334;2022-12-18T07:21:06;-4.70;99.90
25024;DHT22;13033;50.936;5.334;2022-12-18T07:23:33;-4.90;99.90
25024;DHT22;13033;50.936;5.334;2022-12-18T07:26:12;-5.10;99.90
25024;DHT22;13033;50.936;5.334;2022-12-18T07:28:39;-5.10;99.90
25024;DHT22;13033;50.936;5.334;2022-12-18T07:31:07;-5.00;99.90
25024;DHT22;13033;50.936;5.334;2022-12-18T07:33:34;-5.00;99.90
25024;DHT22;13033;50.936;5.334;2022-12-18T07:36:01;-5.00;99.90
25024;DHT22;13033;50.936;5.334;2022-12-18T07:38:28;-5.00;99.90
25024;DHT22;13033;50.936;5.334;2022-12-18T07:40:54;-5.00;99.90
25024;DHT22;13033;50.936;5.334;2022-12-18T07:43:20;-5.00;99.90
25024;DHT22;13033;50.936;5.334;2022-12-18T07:45:48;-5.00;99.90
25024;DHT22;13033;50.936;5.334;2022-12-18T07:48:14;-5.00;99.90
25024;DHT22;13033;50.936;5.334;2022-12-18T07:50:39;-5.00;99.90
25024;DHT22;13033;50.936;5.334;2022-12-18T07:53:05;-4.90;99.90
25024;DHT22;13033;50.936;5.334;2022-12-18T07:55:31;-4.90;99.90
25024;DHT22;13033;50.936;5.334;2022-12-18T07:57:59;-4.90;99.90
25024;DHT22;13033;50.936;5.334;2022-12-18T08:00:25;-5.10;99.90
25024;DHT22;13033;50.936;5.334;2022-12-18T08:02:51;-5.10;99.90
25024;DHT22;13033;50.936;5.334;2022-12-18T08:05:17;-5.00;99.90
25024;DHT22;13033;50.936;5.334;2022-12-18T08:07:42;-5.00;99.90
25024;DHT22;13033;50.936;5.334;2022-12-18T08:10:08;-4.90;99.90
25024;DHT22;13033;50.936;5.334;2022-12-18T08:12:34;-4.80;99.90
25024;DHT22;13033;50.936;5.334;2022-12-18T08:14:59;-4.70;99.90
25024;DHT22;13033;50.936;5.334;2022-12-18T08:17:25;-4.60;99.90
25024;DHT22;13033;50.936;5.334;2022-12-18T08:19:51;-4.50;99.90
25024;DHT22;13033;50.936;5.334;2022-12-18T08:22:16;-4.40;99.90
25024;DHT22;13033;50.936;5.334;2022-12-18T08:24:42;-4.30;99.90
25024;DHT22;13033;50.936;5.334;2022-12-18T08:27:08;-4.20;99.90
25024;DHT22;13033;50.936;5.334;2022-12-18T08:29:34;-4.10;99.90
25024;DHT22;13033;50.936;5.334;2022-12-18T08:32:00;-4.00;99.90
25024;DHT22;13033;50.936;5.334;2022-12-18T08:34:25;-4.00;99.90
25024;DHT22;13033;50.936;5.334;2022-12-18T08:36:51;-4.00;99.90
25024;DHT22;13033;50.936;5.334;2022-12-18T08:39:17;-4.00;99.90
25024;DHT22;13033;50.936;5.334;2022-12-18T08:41:43;-4.00;99.90
25024;DHT22;13033;50.936;5.334;2022-12-18T08:44:28;-3.90;99.90
25024;DHT22;13033;50.936;5.334;2022-12-18T08:47:03;-4.00;99.90
25024;DHT22;13033;50.936;5.334;2022-12-18T08:49:29;-3.80;99.90
25024;DHT22;13033;50.936;5.334;2022-12-18T08:51:55;-3.70;99.90
25024;DHT22;13033;50.936;5.334;2022-12-18T08:54:23;-3.60;99.90
25024;DHT22;13033;50.936;5.334;2022-12-18T08:56:49;-3.80;99.90
25024;DHT22;13033;50.936;5.334;2022-12-18T08:59:18;-3.90;99.90
25024;DHT22;13033;50.936;5.334;2022-12-18T09:01:44;-3.80;99.90
25024;DHT22;13033;50.936;5.334;2022-12-18T09:04:10;-3.60;99.90
25024;DHT22;13033;50.936;5.334;2022-12-18T09:06:36;-3.40;99.90
25024;DHT22;13033;50.936;5.334;2022-12-18T09:09:03;-3.30;99.90
25024;DHT22;13033;50.936;5.334;2022-12-18T09:11:31;-3.20;99.90
25024;DHT22;13033;50.936;5.334;2022-12-18T09:13:59;-3.50;99.90
25024;DHT22;13033;50.936;5.334;2022-12-18T09:16:26;-3.50;99.90
25024;DHT22;13033;50.936;5.334;2022-12-18T09:18:56;-3.30;99.90
25024;DHT22;13033;50.936;5.334;2022-12-18T09:21:25;-3.30;99.90
25024;DHT22;13033;50.936;5.334;2022-12-18T09:23:53;-3.20;99.90
25024;DHT22;13033;50.936;5.334;2022-12-18T09:26:19;-3.10;99.90
25024;DHT22;13033;50.936;5.334;2022-12-18T09:28:50;-3.00;99.90
25024;DHT22;13033;50.936;5.334;2022-12-18T09:31:17;-2.80;99.90
25024;DHT22;13033;50.936;5.334;2022-12-18T09:33:43;-2.70;99.90
25024;DHT22;13033;50.936;5.334;2022-12-18T09:36:12;-2.60;99.90
25024;DHT22;13033;50.936;5.334;2022-12-18T09:38:38;-2.50;99.90
25024;DHT22;13033;50.936;5.334;2022-12-18T09:41:19;-2.40;99.90
25024;DHT22;13033;50.936;5.334;2022-12-18T09:43:51;-2.40;99.90
25024;DHT22;13033;50.936;5.334;2022-12-18T09:46:35;-2.40;99.90
25024;DHT22;13033;50.936;5.334;2022-12-18T09:49:05;-2.40;99.90
25024;DHT22;13033;50.936;5.334;2022-12-18T09:51:41;-2.50;99.90
25024;DHT22;13033;50.936;5.334;2022-12-18T09:54:14;-2.40;99.90
25024;DHT22;13033;50.936;5.334;2022-12-18T09:56:42;-2.20;99.90
25024;DHT22;13033;50.936;5.334;2022-12-18T09:59:24;-2.00;99.90
25024;DHT22;13033;50.936;5.334;2022-12-18T10:01:51;-2.10;99.90
25024;DHT22;13033;50.936;5.334;2022-12-18T10:04:17;-2.00;99.90
25024;DHT22;13033;50.936;5.334;2022-12-18T10:06:55;-1.90;99.90
25024;DHT22;13033;50.936;5.334;2022-12-18T10:09:48;-1.60;99.90
25024;DHT22;13033;50.936;5.334;2022-12-18T10:12:23;-1.50;99.90
25024;DHT22;13033;50.936;5.334;2022-12-18T10:15:12;-1.40;99.90
25024;DHT22;13033;50.936;5.334;2022-12-18T10:17:56;-1.30;99.90
25024;DHT22;13033;50.936;5.334;2022-12-18T10:20:51;-1.10;99.90
25024;DHT22;13033;50.936;5.334;2022-12-18T10:23:28;-1.10;99.90
25024;DHT22;13033;50.936;5.334;2022-12-18T10:26:06;-0.90;99.90
25024;DHT22;13033;50.936;5.334;2022-12-18T10:28:35;-1.00;99.90
25024;DHT22;13033;50.936;5.334;2022-12-18T10:31:01;-0.90;99.90
25024;DHT22;13033;50.936;5.334;2022-12-18T10:33:30;-0.80;99.90
25024;DHT22;13033;50.936;5.334;2022-12-18T10:35:57;-0.70;99.90
25024;DHT22;13033;50.936;5.334;2022-12-18T10:38:24;-0.70;99.90
25024;DHT22;13033;50.936;5.334;2022-12-18T10:40:55;-0.70;99.90
25024;DHT22;13033;50.936;5.334;2022-12-18T10:43:24;-0.70;99.90
25024;DHT22;13033;50.936;5.334;2022-12-18T10:48:48;-0.60;99.90
25024;DHT22;13033;50.936;5.334;2022-12-18T10:53:57;-0.70;99.90
25024;DHT22;13033;50.936;5.334;2022-12-18T10:56:25;-0.40;99.90
25024;DHT22;13033;50.936;5.334;2022-12-18T10:59:10;-0.40;99.90
25024;DHT22;13033;50.936;5.334;2022-12-18T11:04:23;-0.40;99.90
25024;DHT22;13033;50.936;5.334;2022-12-18T11:06:54;-0.30;99.90
25024;DHT22;13033;50.936;5.334;2022-12-18T11:09:23;-0.30;99.90
25024;DHT22;13033;50.936;5.334;2022-12-18T11:11:54;-0.50;99.90
25024;DHT22;13033;50.936;5.334;2022-12-18T11:14:28;-0.30;99.90
25024;DHT22;13033;50.936;5.334;2022-12-18T11:16:54;-0.20;99.90
25024;DHT22;13033;50.936;5.334;2022-12-18T11:19:35;-0.10;99.90
25024;DHT22;13033;50.936;5.334;2022-12-18T11:22:16;0.00;99.90
25024;DHT22;13033;50.936;5.334;2022-12-18T11:24:50;0.00;99.90
25024;DHT22;13033;50.936;5.334;2022-12-18T11:27:18;0.00;99.90
25024;DHT22;13033;50.936;5.334;2022-12-18T11:29:44;0.30;99.90
25024;DHT22;13033;50.936;5.334;2022-12-18T11:32:22;0.50;99.90
25024;DHT22;13033;50.936;5.334;2022-12-18T11:34:55;0.60;99.90
25024;DHT22;13033;50.936;5.334;2022-12-18T11:37:22;0.60;99.90
25024;DHT22;13033;50.936;5.334;2022-12-18T11:40:05;0.70;99.90
25024;DHT22;13033;50.936;5.334;2022-12-18T11:42:44;0.90;99.90
25024;DHT22;13033;50.936;5.334;2022-12-18T11:50:40;0.70;99.90
25024;DHT22;13033;50.936;5.334;2022-12-18T11:53:12;0.80;99.90
25024;DHT22;13033;50.936;5.334;2022-12-18T11:55:56;1.00;99.90
25024;DHT22;13033;50.936;5.334;2022-12-18T11:58:51;1.00;99.90
25024;DHT22;13033;50.936;5.334;2022-12-18T12:01:36;1.00;99.90
25024;DHT22;13033;50.936;5.334;2022-12-18T12:04:23;0.90;99.90
25024;DHT22;13033;50.936;5.334;2022-12-18T12:26:11;1.10;99.90
25024;DHT22;13033;50.936;5.334;2022-12-18T12:31:20;1.10;99.90
25024;DHT22;13033;50.936;5.334;2022-12-18T12:39:37;0.90;99.90
25024;DHT22;13033;50.936;5.334;2022-12-18T12:42:06;1.00;99.90
25024;DHT22;13033;50.936;5.334;2022-12-18T12:44:56;1.10;99.90
25024;DHT22;13033;50.936;5.334;2022-12-18T12:47:32;1.20;99.90
25024;DHT22;13033;50.936;5.334;2022-12-18T12:50:01;1.20;99.90
25024;DHT22;13033;50.936;5.334;2022-12-18T12:52:34;1.20;99.90
25024;DHT22;13033;50.936;5.334;2022-12-18T12:55:04;1.30;99.90
25024;DHT22;13033;50.936;5.334;2022-12-18T12:57:31;1.30;99.90
25024;DHT22;13033;50.936;5.334;2022-12-18T13:07:57;1.50;99.90
25024;DHT22;13033;50.936;5.334;2022-12-18T13:10:42;1.50;99.90
25024;DHT22;13033;50.936;5.334;2022-12-18T13:13:10;1.80;99.90
25024;DHT22;13033;50.936;5.334;2022-12-18T13:15:49;1.80;99.90
25024;DHT22;13033;50.936;5.334;2022-12-18T13:18:28;1.90;99.90
25024;DHT22;13033;50.936;5.334;2022-12-18T13:25:56;2.00;99.90
25024;DHT22;13033;50.936;5.334;2022-12-18T13:31:14;2.10;99.90
25024;DHT22;13033;50.936;5.334;2022-12-18T13:33:46;2.10;99.90
25024;DHT22;13033;50.936;5.334;2022-12-18T13:36:13;2.10;99.90
25024;DHT22;13033;50.936;5.334;2022-12-18T13:38:41;2.20;99.90
25024;DHT22;13033;50.936;5.334;2022-12-18T13:43:54;1.90;99.90
25024;DHT22;13033;50.936;5.334;2022-12-18T13:51:56;1.80;99.90
25024;DHT22;13033;50.936;5.334;2022-12-18T13:54:40;1.70;99.90
25024;DHT22;13033;50.936;5.334;2022-12-18T13:57:29;1.80;99.90
25024;DHT22;13033;50.936;5.334;2022-12-18T13:59:56;1.90;99.90
25024;DHT22;13033;50.936;5.334;2022-12-18T14:02:24;2.00;99.90
25024;DHT22;13033;50.936;5.334;2022-12-18T14:04:51;2.00;99.90
25024;DHT22;13033;50.936;5.334;2022-12-18T14:07:23;2.00;99.90
25024;DHT22;13033;50.936;5.334;2022-12-18T14:09:54;1.90;99.90
25024;DHT22;13033;50.936;5.334;2022-12-18T14:12:32;2.00;99.90
25024;DHT22;13033;50.936;5.334;2022-12-18T14:17:49;1.90;99.90
25024;DHT22;13033;50.936;5.334;2022-12-18T14:20:16;1.80;99.90
25024;DHT22;13033;50.936;5.334;2022-12-18T14:22:45;2.00;99.90
25024;DHT22;13033;50.936;5.334;2022-12-18T14:25:23;2.00;99.90
25024;DHT22;13033;50.936;5.334;2022-12-18T14:30:43;2.00;99.90
25024;DHT22;13033;50.936;5.334;2022-12-18T14:38:30;2.00;99.90
25024;DHT22;13033;50.936;5.334;2022-12-18T14:40:58;1.90;99.90
25024;DHT22;13033;50.936;5.334;2022-12-18T14:43:26;1.80;99.90
25024;DHT22;13033;50.936;5.334;2022-12-18T14:45:53;1.80;99.90
25024;DHT22;13033;50.936;5.334;2022-12-18T14:48:38;1.90;99.90
25024;DHT22;13033;50.936;5.334;2022-12-18T14:51:16;2.20;99.90
25024;DHT22;13033;50.936;5.334;2022-12-18T14:53:45;2.10;99.90
25024;DHT22;13033;50.936;5.334;2022-12-18T14:56:18;2.00;99.90
25024;DHT22;13033;50.936;5.334;2022-12-18T14:59:03;2.10;99.90
25024;DHT22;13033;50.936;5.334;2022-12-18T15:04:38;2.20;99.90
25024;DHT22;13033;50.936;5.334;2022-12-18T15:07:20;2.20;99.90
25024;DHT22;13033;50.936;5.334;2022-12-18T15:12:36;2.10;99.90
25024;DHT22;13033;50.936;5.334;2022-12-18T15:15:03;2.10;99.90
25024;DHT22;13033;50.936;5.334;2022-12-18T15:17:29;2.20;99.90
25024;DHT22;13033;50.936;5.334;2022-12-18T15:20:03;2.20;99.90
25024;DHT22;13033;50.936;5.334;2022-12-18T15:22:35;2.00;99.90
25024;DHT22;13033;50.936;5.334;2022-12-18T15:25:02;1.90;99.90
25024;DHT22;13033;50.936;5.334;2022-12-18T15:27:33;2.00;99.90
25024;DHT22;13033;50.936;5.334;2022-12-18T15:32:36;1.90;99.90
25024;DHT22;13033;50.936;5.334;2022-12-18T15:35:24;1.80;99.90
25024;DHT22;13033;50.936;5.334;2022-12-18T15:37:51;1.90;99.90
25024;DHT22;13033;50.936;5.334;2022-12-18T15:40:20;1.90;99.90
25024;DHT22;13033;50.936;5.334;2022-12-18T15:42:47;2.00;99.90
25024;DHT22;13033;50.936;5.334;2022-12-18T15:45:32;1.90;99.90
25024;DHT22;13033;50.936;5.334;2022-12-18T15:47:58;1.90;99.90
25024;DHT22;13033;50.936;5.334;2022-12-18T15:50:24;1.90;99.90
25024;DHT22;13033;50.936;5.334;2022-12-18T15:52:52;1.90;99.90
25024;DHT22;13033;50.936;5.334;2022-12-18T15:55:21;2.00;99.90
25024;DHT22;13033;50.936;5.334;2022-12-18T15:58:07;2.10;99.90
25024;DHT22;13033;50.936;5.334;2022-12-18T16:00:34;1.80;99.90
25024;DHT22;13033;50.936;5.334;2022-12-18T16:03:00;1.70;99.90
25024;DHT22;13033;50.936;5.334;2022-12-18T16:05:27;1.90;99.90
25024;DHT22;13033;50.936;5.334;2022-12-18T16:07:53;1.90;99.90
25024;DHT22;13033;50.936;5.334;2022-12-18T16:10:19;2.00;99.90
25024;DHT22;13033;50.936;5.334;2022-12-18T16:12:45;2.10;99.90
25024;DHT22;13033;50.936;5.334;2022-12-18T16:15:13;2.20;99.90
25024;DHT22;13033;50.936;5.334;2022-12-18T16:17:40;2.30;99.90
25024;DHT22;13033;50.936;5.334;2022-12-18T16:20:16;2.20;99.90
25024;DHT22;13033;50.936;5.334;2022-12-18T16:22:43;2.20;99.90
25024;DHT22;13033;50.936;5.334;2022-12-18T16:25:22;2.10;99.90
25024;DHT22;13033;50.936;5.334;2022-12-18T16:27:48;2.20;99.90
25024;DHT22;13033;50.936;5.334;2022-12-18T16:30:19;2.20;99.90
25024;DHT22;13033;50.936;5.334;2022-12-18T16:32:45;2.30;99.90
25024;DHT22;13033;50.936;5.334;2022-12-18T16:35:12;2.30;99.90
25024;DHT22;13033;50.936;5.334;2022-12-18T16:37:39;2.30;99.90
25024;DHT22;13033;50.936;5.334;2022-12-18T16:40:07;2.30;99.90
25024;DHT22;13033;50.936;5.334;2022-12-18T16:42:35;2.30;99.90
25024;DHT22;13033;50.936;5.334;2022-12-18T16:45:02;2.30;99.90
25024;DHT22;13033;50.936;5.334;2022-12-18T16:47:28;2.30;99.90
25024;DHT22;13033;50.936;5.334;2022-12-18T16:49:53;2.30;99.90
25024;DHT22;13033;50.936;5.334;2022-12-18T16:52:19;2.40;99.90
25024;DHT22;13033;50.936;5.334;2022-12-18T16:54:45;2.50;99.90
25024;DHT22;13033;50.936;5.334;2022-12-18T16:57:13;2.30;99.90
25024;DHT22;13033;50.936;5.334;2022-12-18T16:59:39;2.30;99.90
25024;DHT22;13033;50.936;5.334;2022-12-18T17:02:05;2.40;99.90
25024;DHT22;13033;50.936;5.334;2022-12-18T17:04:31;2.50;99.90
25024;DHT22;13033;50.936;5.334;2022-12-18T17:06:58;2.50;99.90
25024;DHT22;13033;50.936;5.334;2022-12-18T17:09:23;2.50;99.90
25024;DHT22;13033;50.936;5.334;2022-12-18T17:11:53;2.50;99.90
25024;DHT22;13033;50.936;5.334;2022-12-18T17:14:20;2.50;99.90
25024;DHT22;13033;50.936;5.334;2022-12-18T17:16:46;2.60;99.90
25024;DHT22;13033;50.936;5.334;2022-12-18T17:19:13;2.60;99.90
25024;DHT22;13033;50.936;5.334;2022-12-18T17:21:39;2.50;99.90
25024;DHT22;13033;50.936;5.334;2022-12-18T17:24:05;2.30;99.90
25024;DHT22;13033;50.936;5.334;2022-12-18T17:26:31;2.40;99.90
25024;DHT22;13033;50.936;5.334;2022-12-18T17:28:57;2.30;99.90
25024;DHT22;13033;50.936;5.334;2022-12-18T17:31:26;2.30;99.90
25024;DHT22;13033;50.936;5.334;2022-12-18T17:33:53;2.50;99.90
25024;DHT22;13033;50.936;5.334;2022-12-18T17:36:19;2.50;99.90
25024;DHT22;13033;50.936;5.334;2022-12-18T17:38:56;2.60;99.90
25024;DHT22;13033;50.936;5.334;2022-12-18T17:41:22;2.60;99.90
25024;DHT22;13033;50.936;5.334;2022-12-18T17:43:52;2.60;99.90
25024;DHT22;13033;50.936;5.334;2022-12-18T17:46:19;2.70;99.90
25024;DHT22;13033;50.936;5.334;2022-12-18T17:48:45;2.60;99.90